createdAt,value
2024-03-16T00:02:27.063Z,99485.30
2024-03-16T00:04:58.676Z,99484.11
2024-03-16T00:07:29.027Z,99493.20
2024-03-16T00:10:00.758Z,99493.34
2024-03-16T00:12:31.346Z,99496.33
2024-03-16T00:15:03.081Z,99497.91
2024-03-16T00:17:33.929Z,99497.23
2024-03-16T00:20:08.932Z,99499.11
2024-03-16T00:22:41.988Z,99501.91
2024-03-16T00:25:12.949Z,99494.79
2024-03-16T00:27:44.814Z,99491.92
2024-03-16T00:30:15.484Z,99490.55
2024-03-16T00:32:48.860Z,99493.11
2024-03-16T00:35:19.564Z,99493.86
2024-03-16T00:37:51.994Z,99487.67
2024-03-16T00:40:22.575Z,99490.61
2024-03-16T00:42:54.332Z,99490.77
2024-03-16T00:45:24.780Z,99495.38
2024-03-16T00:47:57.698Z,99497.94
2024-03-16T00:50:28.580Z,99492.64
2024-03-16T00:53:00.446Z,99485.79
2024-03-16T00:55:32.246Z,99480.13
2024-03-16T00:58:04.781Z,99477.11
2024-03-16T01:00:35.184Z,99476.36
2024-03-16T01:03:07.156Z,99475.20
2024-03-16T01:05:37.445Z,99483.29
2024-03-16T01:08:09.559Z,99479.55
2024-03-16T01:10:39.961Z,99475.34
2024-03-16T01:13:11.741Z,99467.02
2024-03-16T01:15:42.166Z,99468.06
2024-03-16T01:18:14.006Z,99465.02
2024-03-16T01:20:45.425Z,99461.13
2024-03-16T01:23:18.689Z,99465.26
2024-03-16T01:25:48.952Z,99464.36
2024-03-16T01:28:20.712Z,99453.45
2024-03-16T01:30:51.194Z,99447.78
2024-03-16T01:33:22.878Z,99445.10
2024-03-16T01:35:55.599Z,99438.96
2024-03-16T01:38:27.537Z,99440.61
2024-03-16T01:40:58.060Z,99441.83
2024-03-16T01:43:29.903Z,99443.19
2024-03-16T01:46:00.240Z,99446.42
2024-03-16T01:48:32.233Z,99448.66
2024-03-16T01:51:04.897Z,99450.55
2024-03-16T01:53:37.927Z,99448.55
2024-03-16T01:56:08.260Z,99449.27
2024-03-16T01:58:44.514Z,99450.09
2024-03-16T02:01:17.237Z,99449.75
2024-03-16T02:03:48.092Z,99455.11
2024-03-16T02:06:19.922Z,99454.43
2024-03-16T02:08:50.266Z,99454.17
2024-03-16T02:11:23.115Z,99452.93
2024-03-16T02:13:53.493Z,99450.58
2024-03-16T02:16:25.264Z,99451.64
2024-03-16T02:18:56.124Z,99451.57
2024-03-16T02:21:27.956Z,99456.32
2024-03-16T02:23:58.749Z,99460.09
2024-03-16T02:26:30.799Z,99459.20
2024-03-16T02:29:03.702Z,99460.52
2024-03-16T02:31:37.715Z,99462.99
2024-03-16T02:34:08.900Z,99462.00
2024-03-16T02:36:40.885Z,99462.47
2024-03-16T02:39:12.402Z,99465.19
2024-03-16T02:41:44.244Z,99468.89
2024-03-16T02:44:14.811Z,99463.99
2024-03-16T02:46:47.047Z,99466.05
2024-03-16T02:49:17.613Z,99461.41
2024-03-16T02:51:49.652Z,99460.29
2024-03-16T02:54:20.297Z,99461.61
2024-03-16T02:56:52.965Z,99464.99
2024-03-16T02:59:23.793Z,99461.98
2024-03-16T03:01:57.065Z,99462.63
2024-03-16T03:04:27.535Z,99459.31
2024-03-16T03:06:59.340Z,99455.36
2024-03-16T03:09:30.743Z,99454.23
2024-03-16T03:12:02.505Z,99455.52
2024-03-16T03:14:33.443Z,99458.55
2024-03-16T03:17:05.201Z,99460.56
2024-03-16T03:19:35.594Z,99460.14
2024-03-16T03:22:07.214Z,99459.01
2024-03-16T03:24:37.713Z,99459.37
2024-03-16T03:27:09.379Z,99458.51
2024-03-16T03:29:39.853Z,99456.79
2024-03-16T03:32:11.472Z,99461.72
2024-03-16T03:34:41.878Z,99462.13
2024-03-16T03:37:13.698Z,99463.38
2024-03-16T03:39:44.401Z,99469.42
2024-03-16T03:42:16.146Z,99471.54
2024-03-16T03:45:01.589Z,99472.73
2024-03-16T03:47:51.414Z,99470.90
2024-03-16T03:50:34.609Z,99474.73
2024-03-16T03:53:07.104Z,99477.20
2024-03-16T03:55:37.664Z,99474.52
2024-03-16T03:58:09.910Z,99476.81
2024-03-16T04:00:40.495Z,99478.42
2024-03-16T04:03:12.272Z,99478.61
2024-03-16T04:05:44.504Z,99479.58
2024-03-16T04:08:16.280Z,99479.30
2024-03-16T04:10:46.745Z,99477.53
2024-03-16T04:13:18.719Z,99477.45
2024-03-16T04:15:50.651Z,99479.46
2024-03-16T04:18:22.221Z,99477.65
2024-03-16T04:20:53.182Z,99479.80
2024-03-16T04:23:24.713Z,99482.94
2024-03-16T04:25:55.162Z,99488.58
2024-03-16T04:28:26.707Z,99488.11
2024-03-16T04:30:57.215Z,99490.32
2024-03-16T04:33:28.990Z,99489.80
2024-03-16T04:35:59.456Z,99492.98
2024-03-16T04:38:31.037Z,99491.01
2024-03-16T04:41:01.365Z,99490.41
2024-03-16T04:43:32.997Z,99493.84
2024-03-16T04:46:03.492Z,99492.66
2024-03-16T04:48:35.037Z,99494.30
2024-03-16T04:51:05.484Z,99491.95
2024-03-16T04:53:37.087Z,99493.45
2024-03-16T04:56:08.009Z,99491.26
2024-03-16T04:58:39.665Z,99488.61
2024-03-16T05:01:10.883Z,99495.77
2024-03-16T05:03:42.548Z,99498.64
2024-03-16T05:06:13.892Z,99500.19
2024-03-16T05:08:46.495Z,99501.38
2024-03-16T05:11:17.073Z,99503.94
2024-03-16T05:13:48.917Z,99510.73
2024-03-16T05:16:19.579Z,99508.30
2024-03-16T05:18:51.334Z,99513.46
2024-03-16T05:21:23.181Z,99514.67
2024-03-16T05:23:54.961Z,99512.02
2024-03-16T05:26:25.410Z,99513.61
2024-03-16T05:28:57.236Z,99515.70
2024-03-16T05:31:28.755Z,99514.52
2024-03-16T05:34:00.669Z,99515.48
2024-03-16T05:36:31.195Z,99514.33
2024-03-16T05:39:03.971Z,99512.84
2024-03-16T05:41:34.527Z,99512.58
2024-03-16T05:44:06.245Z,99511.68
2024-03-16T05:46:36.980Z,99512.63
2024-03-16T05:49:09.006Z,99515.14
2024-03-16T05:51:40.006Z,99520.94
2024-03-16T05:54:11.746Z,99520.27
2024-03-16T05:56:42.248Z,99521.58
2024-03-16T05:59:14.395Z,99524.05
2024-03-16T06:01:46.686Z,99521.62
2024-03-16T06:04:21.180Z,99518.82
2024-03-16T06:06:53.769Z,99523.20
2024-03-16T06:09:24.360Z,99522.92
2024-03-16T06:11:56.291Z,99525.98
2024-03-16T06:14:27.280Z,99530.67
2024-03-16T06:16:58.898Z,99535.36
2024-03-16T06:19:29.430Z,99538.39
2024-03-16T06:22:03.243Z,99538.43
2024-03-16T06:24:34.117Z,99541.42
2024-03-16T06:27:07.251Z,99545.23
2024-03-16T06:29:37.732Z,99549.88
2024-03-16T06:32:10.346Z,99549.86
2024-03-16T06:34:40.878Z,99545.72
2024-03-16T06:37:12.700Z,99544.46
2024-03-16T06:39:43.900Z,99553.59
2024-03-16T06:42:15.683Z,99558.46
2024-03-16T06:44:46.143Z,99564.34
2024-03-16T06:47:17.866Z,99570.06
2024-03-16T06:49:48.433Z,99577.36
2024-03-16T06:52:25.863Z,99579.08
2024-03-16T06:54:57.751Z,99578.85
2024-03-16T06:57:28.317Z,99585.60
2024-03-16T07:00:00.170Z,99588.52
2024-03-16T07:02:30.827Z,99589.52
2024-03-16T07:05:02.855Z,99586.48
2024-03-16T07:07:33.883Z,99585.95
2024-03-16T07:10:08.443Z,99586.66
2024-03-16T07:12:41.775Z,99582.67
2024-03-16T07:15:16.604Z,99583.50
2024-03-16T07:17:48.424Z,99583.83
2024-03-16T07:20:19.117Z,99586.19
2024-03-16T07:22:51.501Z,99587.04
2024-03-16T07:25:22.708Z,99584.27
2024-03-16T07:27:54.711Z,99591.64
2024-03-16T07:30:26.584Z,99591.41
2024-03-16T07:32:58.414Z,99595.09
2024-03-16T07:35:29.402Z,99597.32
2024-03-16T07:38:01.619Z,99595.39
2024-03-16T07:40:33.205Z,99595.26
2024-03-16T07:43:05.143Z,99597.61
2024-03-16T07:45:41.261Z,99602.80
2024-03-16T07:48:13.757Z,99600.16
2024-03-16T07:50:44.301Z,99597.83
2024-03-16T07:53:15.899Z,99601.96
2024-03-16T07:55:46.493Z,99604.73
2024-03-16T07:58:18.050Z,99601.86
2024-03-16T08:00:48.796Z,99603.52
2024-03-16T08:03:20.409Z,99604.67
2024-03-16T08:05:51.457Z,99602.95
2024-03-16T08:08:23.996Z,99604.21
2024-03-16T08:10:56.108Z,99606.19
2024-03-16T08:13:27.796Z,99603.09
2024-03-16T08:15:59.541Z,99608.28
2024-03-16T08:18:31.368Z,99609.65
2024-03-16T08:21:03.527Z,99610.90
2024-03-16T08:23:35.890Z,99613.45
2024-03-16T08:26:07.120Z,99618.52
2024-03-16T08:28:40.572Z,99621.19
2024-03-16T08:31:11.208Z,99617.08
2024-03-16T08:33:42.820Z,99616.86
2024-03-16T08:36:13.348Z,99617.55
2024-03-16T08:38:45.102Z,99615.70
2024-03-16T08:41:15.571Z,99613.04
2024-03-16T08:43:47.601Z,99614.61
2024-03-16T08:46:18.548Z,99618.08
2024-03-16T08:48:50.550Z,99611.77
2024-03-16T08:51:21.366Z,99608.02
2024-03-16T08:53:54.485Z,99604.39
2024-03-16T08:56:29.345Z,99601.66
2024-03-16T08:59:04.141Z,99599.10
2024-03-16T09:01:37.555Z,99596.79
2024-03-16T09:04:09.624Z,99596.39
2024-03-16T09:06:42.206Z,99602.76
2024-03-16T09:09:12.917Z,99601.51
2024-03-16T09:11:45.021Z,99601.27
2024-03-16T09:14:16.318Z,99599.50
2024-03-16T09:16:48.047Z,99600.70
2024-03-16T09:19:18.387Z,99599.40
2024-03-16T09:21:50.671Z,99591.07
2024-03-16T09:24:21.202Z,99587.31
2024-03-16T09:26:53.096Z,99587.94
2024-03-16T09:29:23.554Z,99585.06
2024-03-16T09:31:55.540Z,99587.71
2024-03-16T09:34:26.342Z,99584.19
2024-03-16T09:36:58.154Z,99587.39
2024-03-16T09:39:28.623Z,99586.31
2024-03-16T09:42:00.533Z,99584.73
2024-03-16T09:44:30.973Z,99585.30
2024-03-16T09:47:04.896Z,99588.10
2024-03-16T09:49:36.661Z,99592.81
2024-03-16T09:52:11.981Z,99594.30
2024-03-16T09:54:44.390Z,99595.74
2024-03-16T09:57:15.714Z,99600.61
2024-03-16T09:59:49.450Z,99598.40
2024-03-16T10:02:24.832Z,99596.77
2024-03-16T10:04:56.386Z,99598.52
2024-03-16T10:07:26.996Z,99595.07
2024-03-16T10:09:58.524Z,99594.20
2024-03-16T10:12:29.175Z,99594.77
2024-03-16T10:15:24.231Z,99593.07
2024-03-16T10:17:55.775Z,99598.18
2024-03-16T10:20:28.380Z,99594.80
2024-03-16T10:23:00.032Z,99592.54
2024-03-16T10:25:32.011Z,99587.41
2024-03-16T10:28:03.878Z,99594.23
2024-03-16T10:30:34.451Z,99595.17
2024-03-16T10:33:07.322Z,99601.31
2024-03-16T10:35:40.339Z,99598.25
2024-03-16T10:38:15.852Z,99600.79
2024-03-16T10:40:47.732Z,99597.23
2024-03-16T10:43:18.060Z,99595.80
2024-03-16T10:45:49.766Z,99597.44
2024-03-16T10:48:20.226Z,99596.44
2024-03-16T10:50:54.670Z,99601.29
2024-03-16T10:53:28.030Z,99599.52
2024-03-16T10:55:59.012Z,99598.17
2024-03-16T10:58:30.962Z,99595.56
2024-03-16T11:01:17.068Z,99598.95
2024-03-16T11:03:52.933Z,99602.13
2024-03-16T11:06:24.745Z,99604.83
2024-03-16T11:08:55.463Z,99607.58
2024-03-16T11:11:28.297Z,99607.83
2024-03-16T11:14:01.730Z,99609.98
2024-03-16T11:16:36.635Z,99608.86
2024-03-16T11:19:09.192Z,99605.00
2024-03-16T11:21:39.868Z,99604.57
2024-03-16T11:24:15.016Z,99604.19
2024-03-16T11:26:47.812Z,99601.80
2024-03-16T11:29:20.166Z,99604.56
2024-03-16T11:31:54.911Z,99599.31
2024-03-16T11:34:28.084Z,99593.75
2024-03-16T11:36:59.788Z,99595.19
2024-03-16T11:39:33.223Z,99596.50
2024-03-16T11:42:07.338Z,99598.23
2024-03-16T11:44:39.065Z,99596.33
2024-03-16T11:47:10.680Z,99596.66
2024-03-16T11:49:42.477Z,99593.77
2024-03-16T11:52:12.889Z,99588.20
2024-03-16T11:54:49.236Z,99585.60
2024-03-16T11:57:22.485Z,99586.36
2024-03-16T11:59:52.937Z,99587.95
2024-03-16T12:02:24.573Z,99582.96
2024-03-16T12:04:55.500Z,99580.38
2024-03-16T12:07:27.113Z,99577.45
2024-03-16T12:09:57.684Z,99575.62
2024-03-16T12:12:29.257Z,99577.27
2024-03-16T12:15:16.195Z,99576.58
2024-03-16T12:17:49.853Z,99570.48
2024-03-16T12:20:21.398Z,99574.91
2024-03-16T12:22:56.474Z,99572.14
2024-03-16T12:25:29.045Z,99572.34
2024-03-16T12:28:03.419Z,99569.78
2024-03-16T12:30:35.802Z,99564.98
2024-03-16T12:33:10.613Z,99565.12
2024-03-16T12:35:42.233Z,99567.52
2024-03-16T12:38:12.492Z,99567.63
2024-03-16T12:40:44.693Z,99564.71
2024-03-16T12:43:15.069Z,99564.59
2024-03-16T12:45:46.742Z,99564.23
2024-03-16T12:48:17.645Z,99560.20
2024-03-16T12:50:49.298Z,99558.77
2024-03-16T12:53:20.265Z,99559.59
2024-03-16T12:55:52.193Z,99559.44
2024-03-16T12:58:22.570Z,99559.35
2024-03-16T13:00:54.341Z,99561.05
2024-03-16T13:03:24.944Z,99558.35
2024-03-16T13:05:56.702Z,99556.66
2024-03-16T13:08:27.560Z,99555.98
2024-03-16T13:10:59.461Z,99557.08
2024-03-16T13:13:31.681Z,99559.20
2024-03-16T13:16:03.960Z,99556.92
2024-03-16T13:18:34.752Z,99555.45
2024-03-16T13:21:09.014Z,99556.67
2024-03-16T13:23:39.617Z,99559.46
2024-03-16T13:26:13.663Z,99558.73
2024-03-16T13:28:44.051Z,99557.05
2024-03-16T13:31:16.182Z,99559.38
2024-03-16T13:33:46.342Z,99558.37
2024-03-16T13:36:17.960Z,99557.28
2024-03-16T13:38:48.084Z,99555.31
2024-03-16T13:41:19.735Z,99554.39
2024-03-16T13:43:49.912Z,99557.36
2024-03-16T13:46:21.632Z,99555.38
2024-03-16T13:48:59.561Z,99547.27
2024-03-16T13:51:31.494Z,99543.05
2024-03-16T13:54:01.797Z,99540.14
2024-03-16T13:56:33.899Z,99539.98
2024-03-16T13:59:04.315Z,99532.17
2024-03-16T14:01:35.990Z,99533.44
2024-03-16T14:04:06.424Z,99532.34
2024-03-16T14:06:38.117Z,99528.19
2024-03-16T14:09:09.870Z,99529.20
2024-03-16T14:11:42.225Z,99527.05
2024-03-16T14:14:12.449Z,99530.29
2024-03-16T14:16:44.207Z,99525.53
2024-03-16T14:19:14.798Z,99530.45
2024-03-16T14:21:46.455Z,99522.89
2024-03-16T14:24:16.710Z,99524.22
2024-03-16T14:26:48.154Z,99521.92
2024-03-16T14:29:18.511Z,99524.33
2024-03-16T14:31:50.096Z,99523.08
2024-03-16T14:34:20.385Z,99519.96
2024-03-16T14:36:51.975Z,99517.39
2024-03-16T14:39:22.378Z,99519.08
2024-03-16T14:41:53.965Z,99518.88
2024-03-16T14:44:24.907Z,99516.16
2024-03-16T14:46:56.574Z,99520.05
2024-03-16T14:49:29.588Z,99520.89
2024-03-16T14:52:01.012Z,99522.52
2024-03-16T14:54:31.371Z,99517.50
2024-03-16T14:57:03.555Z,99519.27
2024-03-16T14:59:34.262Z,99520.25
2024-03-16T15:02:10.665Z,99521.55
2024-03-16T15:04:42.753Z,99522.25
2024-03-16T15:07:13.344Z,99526.08
2024-03-16T15:09:44.983Z,99531.45
2024-03-16T15:12:15.313Z,99543.02
2024-03-16T15:14:46.775Z,99546.23
2024-03-16T15:17:17.889Z,99545.20
2024-03-16T15:19:49.506Z,99547.98
2024-03-16T15:22:19.976Z,99555.56
2024-03-16T15:24:51.755Z,99554.65
2024-03-16T15:27:24.881Z,99554.79
2024-03-16T15:29:56.908Z,99553.30
2024-03-16T15:32:27.317Z,99553.31
2024-03-16T15:34:58.827Z,99549.89
2024-03-16T15:37:29.286Z,99550.48
2024-03-16T15:40:00.952Z,99552.27
2024-03-16T15:42:31.522Z,99549.21
2024-03-16T15:45:03.628Z,99554.50
2024-03-16T15:47:34.810Z,99554.23
2024-03-16T15:50:07.251Z,99554.36
2024-03-16T15:52:37.586Z,99558.16
2024-03-16T15:55:09.495Z,99555.75
2024-03-16T15:57:39.803Z,99561.13
2024-03-16T16:00:13.320Z,99567.94
2024-03-16T16:02:43.562Z,99571.44
2024-03-16T16:05:16.525Z,99570.14
2024-03-16T16:07:46.864Z,99573.85
2024-03-16T16:10:19.140Z,99577.55
2024-03-16T16:12:49.539Z,99576.67
2024-03-16T16:15:21.187Z,99575.24
2024-03-16T16:17:51.652Z,99584.34
2024-03-16T16:20:23.179Z,99582.42
2024-03-16T16:22:54.523Z,99584.75
2024-03-16T16:25:30.622Z,99587.92
2024-03-16T16:28:03.634Z,99589.98
2024-03-16T16:30:33.838Z,99586.96
2024-03-16T16:33:08.713Z,99589.64
2024-03-16T16:35:42.043Z,99592.71
2024-03-16T16:38:12.494Z,99596.11
2024-03-16T16:40:49.339Z,99596.02
2024-03-16T16:43:21.869Z,99599.67
2024-03-16T16:45:53.884Z,99602.97
2024-03-16T16:48:25.598Z,99612.67
2024-03-16T16:50:58.673Z,99611.88
2024-03-16T16:53:32.920Z,99610.33
2024-03-16T16:56:03.123Z,99618.38
2024-03-16T16:58:35.519Z,99624.19
2024-03-16T17:01:05.857Z,99627.54
2024-03-16T17:03:37.322Z,99632.98
2024-03-16T17:06:08.437Z,99637.20
2024-03-16T17:08:40.156Z,99642.14
2024-03-16T17:11:13.831Z,99648.95
2024-03-16T17:13:46.945Z,99653.41
2024-03-16T17:16:17.381Z,99656.10
2024-03-16T17:18:49.085Z,99658.06
2024-03-16T17:21:19.610Z,99661.89
2024-03-16T17:23:51.722Z,99661.02
2024-03-16T17:26:24.325Z,99667.95
2024-03-16T17:28:55.941Z,99671.20
2024-03-16T17:31:26.420Z,99671.48
2024-03-16T17:33:57.987Z,99675.56
2024-03-16T17:36:28.380Z,99682.30
2024-03-16T17:39:00.195Z,99679.06
2024-03-16T17:41:30.702Z,99683.89
2024-03-16T17:44:02.857Z,99690.98
2024-03-16T17:46:32.964Z,99689.48
2024-03-16T17:49:04.715Z,99692.84
2024-03-16T17:51:35.967Z,99696.31
2024-03-16T17:54:08.993Z,99697.86
2024-03-16T17:56:39.287Z,99694.79
2024-03-16T17:59:12.462Z,99700.45
2024-03-16T18:01:43.117Z,99704.91
2024-03-16T18:04:15.154Z,99704.73
2024-03-16T18:06:46.498Z,99707.70
2024-03-16T18:09:21.742Z,99706.69
2024-03-16T18:11:55.762Z,99704.14
2024-03-16T18:14:26.028Z,99710.51
2024-03-16T18:16:57.402Z,99708.61
2024-03-16T18:19:27.808Z,99709.77
2024-03-16T18:21:59.347Z,99710.84
2024-03-16T18:24:29.865Z,99711.25
2024-03-16T18:27:01.267Z,99714.28
2024-03-16T18:29:31.543Z,99716.43
2024-03-16T18:32:02.961Z,99716.94
2024-03-16T18:34:33.302Z,99722.16
2024-03-16T18:37:04.851Z,99727.38
2024-03-16T18:39:36.590Z,99727.03
2024-03-16T18:42:08.632Z,99733.79
2024-03-16T18:44:39.014Z,99734.55
2024-03-16T18:47:10.605Z,99736.22
2024-03-16T18:49:40.895Z,99739.23
2024-03-16T18:52:12.408Z,99740.75
2024-03-16T18:54:43.278Z,99746.30
2024-03-16T18:57:19.396Z,99749.98
2024-03-16T18:59:51.881Z,99751.35
2024-03-16T19:02:22.506Z,99755.33
2024-03-16T19:04:54.020Z,99763.26
2024-03-16T19:07:25.989Z,99765.28
2024-03-16T19:09:57.635Z,99770.60
2024-03-16T19:12:29.499Z,99780.73
2024-03-16T19:15:02.539Z,99786.45
2024-03-16T19:17:32.908Z,99788.38
2024-03-16T19:20:06.243Z,99790.50
2024-03-16T19:22:40.359Z,99797.70
2024-03-16T19:25:11.923Z,99802.86
2024-03-16T19:27:42.311Z,99806.20
2024-03-16T19:30:16.757Z,99811.30
2024-03-16T19:32:49.172Z,99815.46
2024-03-16T19:35:19.506Z,99819.30
2024-03-16T19:37:53.268Z,99826.30
2024-03-16T19:40:23.780Z,99827.39
2024-03-16T19:42:55.859Z,99820.67
2024-03-16T19:45:26.372Z,99829.50
2024-03-16T19:47:57.938Z,99831.56
2024-03-16T19:50:28.103Z,99837.63
2024-03-16T19:52:59.709Z,99839.83
2024-03-16T19:55:30.158Z,99842.33
2024-03-16T19:58:01.733Z,99848.64
2024-03-16T20:00:33.282Z,99856.12
2024-03-16T20:03:05.284Z,99865.38
2024-03-16T20:05:35.573Z,99872.77
2024-03-16T20:08:07.358Z,99873.91
2024-03-16T20:10:37.661Z,99879.48
2024-03-16T20:13:09.279Z,99881.83
2024-03-16T20:15:39.680Z,99887.52
2024-03-16T20:18:11.321Z,99881.89
2024-03-16T20:20:46.388Z,99887.80
2024-03-16T20:23:19.207Z,99895.09
2024-03-16T20:25:49.761Z,99893.54
2024-03-16T20:28:20.599Z,99898.13
2024-03-16T20:30:51.034Z,99902.93
2024-03-16T20:33:22.418Z,99907.38
2024-03-16T20:35:53.107Z,99909.95
2024-03-16T20:38:24.542Z,99915.60
2024-03-16T20:40:55.522Z,99918.96
2024-03-16T20:43:26.979Z,99923.05
2024-03-16T20:46:00.469Z,99925.33
2024-03-16T20:48:31.988Z,99928.89
2024-03-16T20:51:07.581Z,99935.91
2024-03-16T20:53:39.603Z,99937.77
2024-03-16T20:56:11.388Z,99939.81
2024-03-16T20:58:44.433Z,99937.69
2024-03-16T21:01:16.028Z,99942.86
2024-03-16T21:03:48.617Z,99945.84
2024-03-16T21:06:19.151Z,99949.54
2024-03-16T21:08:50.846Z,99951.34
2024-03-16T21:11:25.595Z,99957.73
2024-03-16T21:13:57.244Z,99964.16
2024-03-16T21:16:27.546Z,99970.86
2024-03-16T21:18:59.158Z,99988.28
2024-03-16T21:21:29.759Z,99987.01
2024-03-16T21:24:01.398Z,99991.42
2024-03-16T21:26:31.747Z,99995.63
2024-03-16T21:29:05.051Z,99988.86
2024-03-16T21:31:37.708Z,99996.55
2024-03-16T21:34:10.385Z,100002.79
2024-03-16T21:36:43.689Z,100010.73
2024-03-16T21:39:15.954Z,100018.53
2024-03-16T21:41:46.525Z,100014.59
2024-03-16T21:44:18.158Z,100022.73
2024-03-16T21:46:48.471Z,100035.55
2024-03-16T21:49:19.942Z,100042.59
2024-03-16T21:51:53.090Z,100043.78
2024-03-16T21:54:26.095Z,100044.83
2024-03-16T21:56:56.369Z,100052.98
2024-03-16T21:59:27.920Z,100046.14
2024-03-16T22:01:58.752Z,100054.96
2024-03-16T22:04:30.439Z,100057.16
2024-03-16T22:07:02.838Z,100071.07
2024-03-16T22:09:34.442Z,100067.73
2024-03-16T22:12:05.438Z,100067.69
2024-03-16T22:14:36.996Z,100074.22
2024-03-16T22:17:07.820Z,100071.67
2024-03-16T22:19:40.202Z,100071.20
2024-03-16T22:22:11.350Z,100080.94
2024-03-16T22:24:42.914Z,100076.87
2024-03-16T22:27:14.062Z,100073.89
2024-03-16T22:29:45.737Z,100075.17
2024-03-16T22:32:16.026Z,100077.53
2024-03-16T22:34:47.762Z,100079.98
2024-03-16T22:37:19.460Z,100076.39
2024-03-16T22:39:50.885Z,100087.33
2024-03-16T22:42:21.581Z,100084.11
2024-03-16T22:44:52.971Z,100087.97
2024-03-16T22:47:23.366Z,100096.56
2024-03-16T22:49:54.781Z,100101.34
2024-03-16T22:52:25.474Z,100106.44
2024-03-16T22:55:01.491Z,100113.11
2024-03-16T22:57:34.168Z,100114.02
2024-03-16T23:00:20.673Z,100124.34
2024-03-16T23:02:52.608Z,100131.19
2024-03-16T23:05:25.797Z,100127.91
2024-03-16T23:07:58.840Z,100128.49
2024-03-16T23:10:32.113Z,100137.66
2024-03-16T23:13:04.129Z,100147.41
2024-03-16T23:15:36.435Z,100155.84
2024-03-16T23:18:08.805Z,100156.86
2024-03-16T23:20:39.116Z,100157.69
2024-03-16T23:23:11.267Z,100166.77
2024-03-16T23:25:45.516Z,100165.37
2024-03-16T23:28:17.134Z,100169.81
2024-03-16T23:30:57.164Z,100178.23
2024-03-16T23:33:29.897Z,100181.80
2024-03-16T23:36:02.173Z,100181.77
2024-03-16T23:38:33.764Z,100179.10
2024-03-16T23:41:04.633Z,100179.93
2024-03-16T23:43:36.082Z,100187.38
2024-03-16T23:46:10.353Z,100179.66
2024-03-16T23:48:42.039Z,100187.75
2024-03-16T23:51:12.474Z,100184.64
2024-03-16T23:53:47.522Z,100193.73
2024-03-16T23:56:20.256Z,100194.48
2024-03-16T23:58:51.701Z,100187.86
